sensor_id;sensor_type;location;lat;lon;timestamp;pressure;altitude;pressure_sealevel;temperature;humidity
48872;BME280;36154;51.674;7.824;2023-06-26T00:01:20;100553.16;;;26.53;49.85
48872;BME280;36154;51.674;7.824;2023-06-26T00:03:46;100549.78;;;26.51;50.04
48872;BME280;36154;51.674;7.824;2023-06-26T00:06:11;100545.53;;;26.50;50.26
48872;BME280;36154;51.674;7.824;2023-06-26T00:08:37;100542.22;;;26.47;50.03
48872;BME280;36154;51.674;7.824;2023-06-26T00:11:02;100537.09;;;26.45;50.09
48872;BME280;36154;51.674;7.824;2023-06-26T00:13:28;100541.53;;;26.43;50.15
48872;BME280;36154;51.674;7.824;2023-06-26T00:15:54;100541.72;;;26.40;50.15
48872;BME280;36154;51.674;7.824;2023-06-26T00:18:19;100526.22;;;26.37;50.07
48872;BME280;36154;51.674;7.824;2023-06-26T00:20:45;100532.38;;;26.36;50.00
48872;BME280;36154;51.674;7.824;2023-06-26T00:23:15;100534.16;;;26.35;50.22
48872;BME280;36154;51.674;7.824;2023-06-26T00:25:42;100519.47;;;26.33;49.88
48872;BME280;36154;51.674;7.824;2023-06-26T00:28:08;100530.00;;;26.31;49.95
48872;BME280;36154;51.674;7.824;2023-06-26T00:30:33;100526.56;;;26.31;50.03
48872;BME280;36154;51.674;7.824;2023-06-26T00:32:59;100528.41;;;26.29;50.00
48872;BME280;36154;51.674;7.824;2023-06-26T00:35:24;100532.75;;;26.28;49.73
48872;BME280;36154;51.674;7.824;2023-06-26T00:37:50;100526.78;;;26.26;50.02
48872;BME280;36154;51.674;7.824;2023-06-26T00:40:16;100529.47;;;26.25;49.88
48872;BME280;36154;51.674;7.824;2023-06-26T00:42:41;100508.72;;;26.21;50.10
48872;BME280;36154;51.674;7.824;2023-06-26T00:45:07;100522.81;;;26.19;50.00
48872;BME280;36154;51.674;7.824;2023-06-26T00:47:33;100522.16;;;26.15;49.97
48872;BME280;36154;51.674;7.824;2023-06-26T00:49:58;100518.78;;;26.13;49.93
48872;BME280;36154;51.674;7.824;2023-06-26T00:52:24;100518.78;;;26.13;49.80
48872;BME280;36154;51.674;7.824;2023-06-26T00:54:50;100515.38;;;26.11;49.70
48872;BME280;36154;51.674;7.824;2023-06-26T00:57:17;100519.69;;;26.12;50.01
48872;BME280;36154;51.674;7.824;2023-06-26T00:59:42;100517.91;;;26.13;49.95
48872;BME280;36154;51.674;7.824;2023-06-26T01:02:08;100512.69;;;26.13;49.80
48872;BME280;36154;51.674;7.824;2023-06-26T01:04:35;100515.38;;;26.11;49.60
48872;BME280;36154;51.674;7.824;2023-06-26T01:07:01;100511.03;;;26.12;49.67
48872;BME280;36154;51.674;7.824;2023-06-26T01:09:28;100508.50;;;26.10;49.62
48872;BME280;36154;51.674;7.824;2023-06-26T01:11:54;100495.53;;;26.09;49.70
48872;BME280;36154;51.674;7.824;2023-06-26T01:14:20;100506.81;;;26.09;49.63
48872;BME280;36154;51.674;7.824;2023-06-26T01:16:46;100492.06;;;26.08;49.55
48872;BME280;36154;51.674;7.824;2023-06-26T01:19:20;100493.00;;;26.07;49.56
48872;BME280;36154;51.674;7.824;2023-06-26T01:21:51;100489.63;;;26.05;49.50
48872;BME280;36154;51.674;7.824;2023-06-26T01:24:22;100488.69;;;26.06;49.39
48872;BME280;36154;51.674;7.824;2023-06-26T01:26:53;100480.03;;;26.06;49.35
48872;BME280;36154;51.674;7.824;2023-06-26T01:29:20;100481.88;;;26.03;49.25
48872;BME280;36154;51.674;7.824;2023-06-26T01:31:49;100479.34;;;26.02;49.20
48872;BME280;36154;51.674;7.824;2023-06-26T01:34:18;100468.91;;;26.02;49.32
48872;BME280;36154;51.674;7.824;2023-06-26T01:36:45;100482.03;;;26.00;49.40
48872;BME280;36154;51.674;7.824;2023-06-26T01:39:15;100472.50;;;25.99;49.05
48872;BME280;36154;51.674;7.824;2023-06-26T01:41:44;100467.38;;;25.98;49.37
48872;BME280;36154;51.674;7.824;2023-06-26T01:44:23;100465.72;;;25.97;49.23
48872;BME280;36154;51.674;7.824;2023-06-26T01:46:59;100464.97;;;25.95;49.38
48872;BME280;36154;51.674;7.824;2023-06-26T01:52:38;100470.34;;;25.92;49.16
48872;BME280;36154;51.674;7.824;2023-06-26T01:55:17;100462.66;;;25.89;49.27
48872;BME280;36154;51.674;7.824;2023-06-26T01:57:46;100472.28;;;25.88;49.28
48872;BME280;36154;51.674;7.824;2023-06-26T02:00:14;100469.75;;;25.87;48.81
48872;BME280;36154;51.674;7.824;2023-06-26T02:02:44;100464.53;;;25.87;49.13
48872;BME280;36154;51.674;7.824;2023-06-26T02:05:09;100466.34;;;25.84;48.96
48872;BME280;36154;51.674;7.824;2023-06-26T02:07:35;100461.31;;;25.81;48.84
48872;BME280;36154;51.674;7.824;2023-06-26T02:10:01;100459.63;;;25.80;48.67
48872;BME280;36154;51.674;7.824;2023-06-26T02:12:27;100455.31;;;25.79;48.96
48872;BME280;36154;51.674;7.824;2023-06-26T02:14:53;100450.19;;;25.78;48.98
48872;BME280;36154;51.674;7.824;2023-06-26T02:17:18;100458.09;;;25.76;48.88
48872;BME280;36154;51.674;7.824;2023-06-26T02:19:44;100453.81;;;25.75;49.01
48872;BME280;36154;51.674;7.824;2023-06-26T02:22:14;100450.38;;;25.75;49.15
48872;BME280;36154;51.674;7.824;2023-06-26T02:24:40;100456.44;;;25.75;48.82
48872;BME280;36154;51.674;7.824;2023-06-26T02:27:06;100447.78;;;25.75;49.45
48872;BME280;36154;51.674;7.824;2023-06-26T02:29:31;100450.38;;;25.75;49.18
48872;BME280;36154;51.674;7.824;2023-06-26T02:31:57;100448.69;;;25.74;48.89
48872;BME280;36154;51.674;7.824;2023-06-26T02:34:23;100446.16;;;25.72;49.02
48872;BME280;36154;51.674;7.824;2023-06-26T02:36:49;100449.66;;;25.71;49.49
48872;BME280;36154;51.674;7.824;2023-06-26T02:39:14;100444.66;;;25.68;49.22
48872;BME280;36154;51.674;7.824;2023-06-26T02:41:40;100451.53;;;25.69;48.97
48872;BME280;36154;51.674;7.824;2023-06-26T02:44:06;100447.34;;;25.67;49.23
48872;BME280;36154;51.674;7.824;2023-06-26T02:46:32;100451.69;;;25.66;49.42
48872;BME280;36154;51.674;7.824;2023-06-26T02:48:59;100446.53;;;25.64;49.44
48872;BME280;36154;51.674;7.824;2023-06-26T02:51:24;100451.88;;;25.63;49.05
48872;BME280;36154;51.674;7.824;2023-06-26T02:53:50;100444.09;;;25.61;49.13
48872;BME280;36154;51.674;7.824;2023-06-26T02:56:16;100452.84;;;25.60;48.95
48872;BME280;36154;51.674;7.824;2023-06-26T02:58:42;100449.41;;;25.60;49.19
48872;BME280;36154;51.674;7.824;2023-06-26T03:01:07;100452.00;;;25.60;48.74
48872;BME280;36154;51.674;7.824;2023-06-26T03:03:33;100453.66;;;25.61;48.40
48872;BME280;36154;51.674;7.824;2023-06-26T03:06:08;100456.19;;;25.62;48.24
48872;BME280;36154;51.674;7.824;2023-06-26T03:08:36;100448.38;;;25.62;48.06
48872;BME280;36154;51.674;7.824;2023-06-26T03:11:02;100457.84;;;25.65;48.01
48872;BME280;36154;51.674;7.824;2023-06-26T03:13:28;100449.09;;;25.66;47.71
48872;BME280;36154;51.674;7.824;2023-06-26T03:15:54;100448.16;;;25.67;47.93
48872;BME280;36154;51.674;7.824;2023-06-26T03:18:20;100449.88;;;25.68;47.77
48872;BME280;36154;51.674;7.824;2023-06-26T03:20:45;100456.75;;;25.69;47.58
48872;BME280;36154;51.674;7.824;2023-06-26T03:23:11;100460.47;;;25.65;47.91
48872;BME280;36154;51.674;7.824;2023-06-26T03:25:37;100453.53;;;25.64;47.89
48872;BME280;36154;51.674;7.824;2023-06-26T03:28:02;100458.75;;;25.64;47.37
48872;BME280;36154;51.674;7.824;2023-06-26T03:30:28;100461.41;;;25.62;47.44
48872;BME280;36154;51.674;7.824;2023-06-26T03:32:54;100456.28;;;25.61;47.63
48872;BME280;36154;51.674;7.824;2023-06-26T03:35:19;100458.88;;;25.61;47.63
48872;BME280;36154;51.674;7.824;2023-06-26T03:37:45;100457.22;;;25.60;47.69
48872;BME280;36154;51.674;7.824;2023-06-26T03:40:10;100449.41;;;25.60;47.13
48872;BME280;36154;51.674;7.824;2023-06-26T03:42:36;100458.13;;;25.59;47.48
48872;BME280;36154;51.674;7.824;2023-06-26T03:45:02;100458.13;;;25.59;47.21
48872;BME280;36154;51.674;7.824;2023-06-26T03:47:28;100462.59;;;25.57;46.96
48872;BME280;36154;51.674;7.824;2023-06-26T03:49:53;100464.38;;;25.56;46.60
48872;BME280;36154;51.674;7.824;2023-06-26T03:52:19;100468.81;;;25.54;45.96
48872;BME280;36154;51.674;7.824;2023-06-26T03:54:45;100459.41;;;25.52;45.07
48872;BME280;36154;51.674;7.824;2023-06-26T03:57:11;100461.94;;;25.53;44.85
48872;BME280;36154;51.674;7.824;2023-06-26T03:59:36;100461.06;;;25.53;44.92
48872;BME280;36154;51.674;7.824;2023-06-26T04:02:02;100464.59;;;25.52;44.40
48872;BME280;36154;51.674;7.824;2023-06-26T04:04:28;100465.53;;;25.51;44.00
48872;BME280;36154;51.674;7.824;2023-06-26T04:06:55;100460.47;;;25.47;43.69
48872;BME280;36154;51.674;7.824;2023-06-26T04:09:21;100458.88;;;25.45;43.34
48872;BME280;36154;51.674;7.824;2023-06-26T04:11:46;100464.16;;;25.43;43.23
48872;BME280;36154;51.674;7.824;2023-06-26T04:14:12;100473.66;;;25.44;43.17
48872;BME280;36154;51.674;7.824;2023-06-26T04:16:38;100470.28;;;25.42;42.85
48872;BME280;36154;51.674;7.824;2023-06-26T04:19:04;100465.06;;;25.42;42.79
48872;BME280;36154;51.674;7.824;2023-06-26T04:21:30;100466.03;;;25.41;42.98
48872;BME280;36154;51.674;7.824;2023-06-26T04:23:56;100473.84;;;25.41;42.62
48872;BME280;36154;51.674;7.824;2023-06-26T04:26:22;100477.22;;;25.43;42.53
48872;BME280;36154;51.674;7.824;2023-06-26T04:28:47;100469.47;;;25.42;42.87
48872;BME280;36154;51.674;7.824;2023-06-26T04:31:13;100473.84;;;25.41;42.38
48872;BME280;36154;51.674;7.824;2023-06-26T04:33:39;100479.97;;;25.40;42.54
48872;BME280;36154;51.674;7.824;2023-06-26T04:36:05;100471.25;;;25.41;42.72
48872;BME280;36154;51.674;7.824;2023-06-26T04:38:33;100479.06;;;25.41;42.44
48872;BME280;36154;51.674;7.824;2023-06-26T04:41:00;100480.81;;;25.41;42.31
48872;BME280;36154;51.674;7.824;2023-06-26T04:43:26;100479.91;;;25.42;42.40
48872;BME280;36154;51.674;7.824;2023-06-26T04:45:52;100486.88;;;25.41;42.42
48872;BME280;36154;51.674;7.824;2023-06-26T04:48:17;100485.94;;;25.42;42.04
48872;BME280;36154;51.674;7.824;2023-06-26T04:50:43;100495.47;;;25.43;42.40
48872;BME280;36154;51.674;7.824;2023-06-26T04:53:17;100498.84;;;25.45;42.52
48872;BME280;36154;51.674;7.824;2023-06-26T04:55:44;100496.22;;;25.45;42.28
48872;BME280;36154;51.674;7.824;2023-06-26T04:58:09;100503.13;;;25.46;42.21
48872;BME280;36154;51.674;7.824;2023-06-26T05:00:35;100503.97;;;25.47;42.57
48872;BME280;36154;51.674;7.824;2023-06-26T05:03:01;100499.59;;;25.47;42.28
48872;BME280;36154;51.674;7.824;2023-06-26T05:05:27;100502.19;;;25.47;42.50
48872;BME280;36154;51.674;7.824;2023-06-26T05:07:54;100501.28;;;25.48;42.22
48872;BME280;36154;51.674;7.824;2023-06-26T05:10:21;100511.56;;;25.52;42.58
48872;BME280;36154;51.674;7.824;2023-06-26T05:12:46;100514.09;;;25.53;42.60
48872;BME280;36154;51.674;7.824;2023-06-26T05:15:12;100504.50;;;25.54;42.74
48872;BME280;36154;51.674;7.824;2023-06-26T05:17:37;100511.41;;;25.55;42.73
48872;BME280;36154;51.674;7.824;2023-06-26T05:20:06;100513.06;;;25.56;42.70
48872;BME280;36154;51.674;7.824;2023-06-26T05:22:33;100503.59;;;25.55;42.68
48872;BME280;36154;51.674;7.824;2023-06-26T05:25:00;100511.22;;;25.58;42.84
48872;BME280;36154;51.674;7.824;2023-06-26T05:27:28;100514.78;;;25.57;43.30
48872;BME280;36154;51.674;7.824;2023-06-26T05:29:53;100511.41;;;25.55;43.35
48872;BME280;36154;51.674;7.824;2023-06-26T05:32:19;100514.84;;;25.55;43.73
48872;BME280;36154;51.674;7.824;2023-06-26T05:34:48;100510.41;;;25.57;43.92
48872;BME280;36154;51.674;7.824;2023-06-26T05:37:20;100516.28;;;25.61;43.90
48872;BME280;36154;51.674;7.824;2023-06-26T05:39:46;100520.59;;;25.62;44.02
48872;BME280;36154;51.674;7.824;2023-06-26T05:42:12;100518.91;;;25.61;43.97
48872;BME280;36154;51.674;7.824;2023-06-26T05:44:38;100516.28;;;25.61;44.31
48872;BME280;36154;51.674;7.824;2023-06-26T05:47:04;100528.59;;;25.59;44.40
48872;BME280;36154;51.674;7.824;2023-06-26T05:49:29;100521.84;;;25.55;44.85
48872;BME280;36154;51.674;7.824;2023-06-26T05:51:55;100516.78;;;25.52;45.15
48872;BME280;36154;51.674;7.824;2023-06-26T05:54:24;100510.03;;;25.47;45.11
48872;BME280;36154;51.674;7.824;2023-06-26T05:56:52;100516.19;;;25.46;45.55
48872;BME280;36154;51.674;7.824;2023-06-26T05:59:22;100516.09;;;25.48;45.63
48872;BME280;36154;51.674;7.824;2023-06-26T06:01:48;100519.47;;;25.50;45.35
48872;BME280;36154;51.674;7.824;2023-06-26T06:04:14;100530.66;;;25.52;45.84
48872;BME280;36154;51.674;7.824;2023-06-26T06:06:40;100532.38;;;25.53;46.00
48872;BME280;36154;51.674;7.824;2023-06-26T06:09:06;100538.56;;;25.51;45.84
48872;BME280;36154;51.674;7.824;2023-06-26T06:11:31;100544.53;;;25.53;45.93
48872;BME280;36154;51.674;7.824;2023-06-26T06:13:57;100543.03;;;25.48;46.13
48872;BME280;36154;51.674;7.824;2023-06-26T06:16:25;100546.69;;;25.44;46.24
48872;BME280;36154;51.674;7.824;2023-06-26T06:18:53;100555.63;;;25.40;46.35
48872;BME280;36154;51.674;7.824;2023-06-26T06:21:19;100575.78;;;25.37;46.71
48872;BME280;36154;51.674;7.824;2023-06-26T06:23:44;100568.19;;;25.32;46.77
48872;BME280;36154;51.674;7.824;2023-06-26T06:26:11;100570.25;;;25.25;47.30
48872;BME280;36154;51.674;7.824;2023-06-26T06:28:36;100565.28;;;25.21;47.20
48872;BME280;36154;51.674;7.824;2023-06-26T06:31:02;100565.44;;;25.18;47.13
48872;BME280;36154;51.674;7.824;2023-06-26T06:33:28;100581.16;;;25.16;47.56
48872;BME280;36154;51.674;7.824;2023-06-26T06:35:53;100578.78;;;25.12;47.37
48872;BME280;36154;51.674;7.824;2023-06-26T06:38:19;100582.44;;;25.07;47.86
48872;BME280;36154;51.674;7.824;2023-06-26T06:40:45;100581.81;;;25.02;47.52
48872;BME280;36154;51.674;7.824;2023-06-26T06:43:10;100580.28;;;24.98;47.82
48872;BME280;36154;51.674;7.824;2023-06-26T06:45:36;100591.69;;;24.96;48.43
48872;BME280;36154;51.674;7.824;2023-06-26T06:48:03;100584.75;;;24.96;47.96
48872;BME280;36154;51.674;7.824;2023-06-26T06:50:29;100599.44;;;24.97;48.26
48872;BME280;36154;51.674;7.824;2023-06-26T06:52:55;100585.50;;;24.98;48.40
48872;BME280;36154;51.674;7.824;2023-06-26T06:55:20;100582.06;;;24.98;48.05
48872;BME280;36154;51.674;7.824;2023-06-26T06:57:46;100578.53;;;24.99;48.34
48872;BME280;36154;51.674;7.824;2023-06-26T07:00:12;100575.91;;;24.99;48.31
48872;BME280;36154;51.674;7.824;2023-06-26T07:02:45;100578.53;;;24.99;48.58
48872;BME280;36154;51.674;7.824;2023-06-26T07:05:11;100586.34;;;24.99;48.29
48872;BME280;36154;51.674;7.824;2023-06-26T07:07:38;100592.41;;;24.99;48.27
48872;BME280;36154;51.674;7.824;2023-06-26T07:10:06;100593.94;;;25.03;48.53
48872;BME280;36154;51.674;7.824;2023-06-26T07:12:33;100585.97;;;25.06;48.47
48872;BME280;36154;51.674;7.824;2023-06-26T07:15:00;100577.06;;;25.10;48.02
48872;BME280;36154;51.674;7.824;2023-06-26T07:17:26;100582.28;;;25.10;48.23
48872;BME280;36154;51.674;7.824;2023-06-26T07:19:52;100591.13;;;25.08;47.83
48872;BME280;36154;51.674;7.824;2023-06-26T07:22:17;100602.53;;;25.05;48.19
48872;BME280;36154;51.674;7.824;2023-06-26T07:24:47;100604.38;;;25.03;48.13
48872;BME280;36154;51.674;7.824;2023-06-26T07:27:14;100608.91;;;25.00;48.25
48872;BME280;36154;51.674;7.824;2023-06-26T07:29:40;100625.38;;;25.00;48.32
48872;BME280;36154;51.674;7.824;2023-06-26T07:32:05;100618.47;;;24.99;48.40
48872;BME280;36154;51.674;7.824;2023-06-26T07:34:31;100625.38;;;25.00;48.11
48872;BME280;36154;51.674;7.824;2023-06-26T07:36:57;100627.97;;;25.00;48.11
48872;BME280;36154;51.674;7.824;2023-06-26T07:39:22;100641.84;;;25.01;48.23
48872;BME280;36154;51.674;7.824;2023-06-26T07:41:48;100651.44;;;25.00;48.58
48872;BME280;36154;51.674;7.824;2023-06-26T07:44:13;100651.44;;;25.00;48.73
48872;BME280;36154;51.674;7.824;2023-06-26T07:46:39;100648.06;;;24.98;48.50
48872;BME280;36154;51.674;7.824;2023-06-26T07:49:05;100653.41;;;24.95;48.43
48872;BME280;36154;51.674;7.824;2023-06-26T07:51:30;100662.28;;;24.91;48.65
48872;BME280;36154;51.674;7.824;2023-06-26T07:53:56;100657.16;;;24.89;48.54
48872;BME280;36154;51.674;7.824;2023-06-26T07:56:22;100664.09;;;24.89;48.75
48872;BME280;36154;51.674;7.824;2023-06-26T07:58:47;100654.69;;;24.86;48.68
48872;BME280;36154;51.674;7.824;2023-06-26T08:01:13;100664.41;;;24.83;48.72
48872;BME280;36154;51.674;7.824;2023-06-26T08:03:39;100660.16;;;24.80;48.68
48872;BME280;36154;51.674;7.824;2023-06-26T08:06:05;100657.50;;;24.82;49.00
48872;BME280;36154;51.674;7.824;2023-06-26T08:08:31;100653.97;;;24.83;48.88
48872;BME280;36154;51.674;7.824;2023-06-26T08:10:57;100653.84;;;24.86;49.03
48872;BME280;36154;51.674;7.824;2023-06-26T08:13:22;100660.59;;;24.90;48.97
48872;BME280;36154;51.674;7.824;2023-06-26T08:15:48;100657.84;;;24.93;49.12
48872;BME280;36154;51.674;7.824;2023-06-26T08:18:14;100643.00;;;24.95;49.07
48872;BME280;36154;51.674;7.824;2023-06-26T08:20:39;100649.84;;;24.98;49.38
48872;BME280;36154;51.674;7.824;2023-06-26T08:23:05;100660.16;;;24.99;49.03
48872;BME280;36154;51.674;7.824;2023-06-26T08:25:31;100659.13;;;25.03;49.08
48872;BME280;36154;51.674;7.824;2023-06-26T08:27:56;100652.81;;;25.07;49.35
48872;BME280;36154;51.674;7.824;2023-06-26T08:30:22;100658.75;;;25.11;49.17
48872;BME280;36154;51.674;7.824;2023-06-26T08:32:50;100662.84;;;25.17;49.39
48872;BME280;36154;51.674;7.824;2023-06-26T08:35:16;100680.00;;;25.21;49.36
48872;BME280;36154;51.674;7.824;2023-06-26T08:37:42;100692.91;;;25.24;49.48
48872;BME280;36154;51.674;7.824;2023-06-26T08:40:07;100699.69;;;25.28;49.71
48872;BME280;36154;51.674;7.824;2023-06-26T08:42:33;100695.22;;;25.30;49.22
48872;BME280;36154;51.674;7.824;2023-06-26T08:45:00;100690.69;;;25.34;49.31
48872;BME280;36154;51.674;7.824;2023-06-26T08:47:26;100705.38;;;25.36;49.12
48872;BME280;36154;51.674;7.824;2023-06-26T08:50:13;100708.75;;;25.38;49.14
48872;BME280;36154;51.674;7.824;2023-06-26T08:52:59;100704.38;;;25.39;48.86
48872;BME280;36154;51.674;7.824;2023-06-26T08:55:31;100720.84;;;25.39;49.10
48872;BME280;36154;51.674;7.824;2023-06-26T08:57:59;100717.47;;;25.37;49.08
48872;BME280;36154;51.674;7.824;2023-06-26T09:00:25;100721.03;;;25.36;49.18
48872;BME280;36154;51.674;7.824;2023-06-26T09:02:51;100706.28;;;25.35;49.09
48872;BME280;36154;51.674;7.824;2023-06-26T09:05:17;100713.97;;;25.38;49.00
48872;BME280;36154;51.674;7.824;2023-06-26T09:07:42;100698.16;;;25.41;49.05
48872;BME280;36154;51.674;7.824;2023-06-26T09:10:08;100709.22;;;25.46;48.85
48872;BME280;36154;51.674;7.824;2023-06-26T09:12:37;100708.97;;;25.51;49.02
48872;BME280;36154;51.674;7.824;2023-06-26T09:15:05;100709.69;;;25.55;48.72
48872;BME280;36154;51.674;7.824;2023-06-26T09:17:34;100719.13;;;25.57;48.52
48872;BME280;36154;51.674;7.824;2023-06-26T09:20:03;100712.91;;;25.60;48.18
48872;BME280;36154;51.674;7.824;2023-06-26T09:22:33;100720.69;;;25.61;48.26
48872;BME280;36154;51.674;7.824;2023-06-26T09:24:58;100724.09;;;25.63;48.44
48872;BME280;36154;51.674;7.824;2023-06-26T09:27:24;100708.34;;;25.65;48.46
48872;BME280;36154;51.674;7.824;2023-06-26T09:29:50;100719.56;;;25.67;48.39
48872;BME280;36154;51.674;7.824;2023-06-26T09:32:16;100722.16;;;25.67;47.92
48872;BME280;36154;51.674;7.824;2023-06-26T09:34:43;100722.00;;;25.70;47.87
48872;BME280;36154;51.674;7.824;2023-06-26T09:37:12;100727.16;;;25.72;48.18
48872;BME280;36154;51.674;7.824;2023-06-26T09:39:38;100731.38;;;25.74;48.06
48872;BME280;36154;51.674;7.824;2023-06-26T09:42:04;100722.63;;;25.75;48.17
48872;BME280;36154;51.674;7.824;2023-06-26T09:44:31;100713.72;;;25.79;48.02
48872;BME280;36154;51.674;7.824;2023-06-26T09:46:56;100716.25;;;25.81;47.83
48872;BME280;36154;51.674;7.824;2023-06-26T09:49:23;100704.97;;;25.80;47.76
48872;BME280;36154;51.674;7.824;2023-06-26T09:51:50;100723.03;;;25.85;47.63
48872;BME280;36154;51.674;7.824;2023-06-26T09:54:16;100716.78;;;25.88;47.16
48872;BME280;36154;51.674;7.824;2023-06-26T09:56:42;100725.38;;;25.90;46.96
48872;BME280;36154;51.674;7.824;2023-06-26T09:59:08;100717.53;;;25.90;47.14
48872;BME280;36154;51.674;7.824;2023-06-26T10:01:39;100718.34;;;25.92;46.78
48872;BME280;36154;51.674;7.824;2023-06-26T10:04:05;100723.56;;;25.92;46.67
48872;BME280;36154;51.674;7.824;2023-06-26T10:06:36;100724.31;;;25.94;46.86
48872;BME280;36154;51.674;7.824;2023-06-26T10:09:04;100716.47;;;25.94;46.86
48872;BME280;36154;51.674;7.824;2023-06-26T10:11:36;100706.81;;;25.96;46.71
48872;BME280;36154;51.674;7.824;2023-06-26T10:14:04;100727.69;;;25.96;46.50
48872;BME280;36154;51.674;7.824;2023-06-26T10:16:32;100730.28;;;25.96;46.42
48872;BME280;36154;51.674;7.824;2023-06-26T10:19:03;100735.59;;;25.94;46.21
48872;BME280;36154;51.674;7.824;2023-06-26T10:21:34;100735.53;;;25.96;45.82
48872;BME280;36154;51.674;7.824;2023-06-26T10:24:00;100738.97;;;25.96;45.89
48872;BME280;36154;51.674;7.824;2023-06-26T10:26:28;100751.19;;;25.96;45.78
48872;BME280;36154;51.674;7.824;2023-06-26T10:28:54;100760.72;;;25.97;45.46
48872;BME280;36154;51.674;7.824;2023-06-26T10:31:26;100759.97;;;25.95;44.70
48872;BME280;36154;51.674;7.824;2023-06-26T10:33:53;100757.34;;;25.95;44.81
48872;BME280;36154;51.674;7.824;2023-06-26T10:36:26;100766.00;;;25.95;44.60
48872;BME280;36154;51.674;7.824;2023-06-26T10:38:57;100761.63;;;25.96;44.48
48872;BME280;36154;51.674;7.824;2023-06-26T10:41:24;100764.25;;;25.96;44.53
48872;BME280;36154;51.674;7.824;2023-06-26T10:44:10;100772.06;;;25.96;42.96
48872;BME280;36154;51.674;7.824;2023-06-26T10:49:15;100757.41;;;25.93;42.57
48872;BME280;36154;51.674;7.824;2023-06-26T10:51:49;100753.03;;;25.94;42.28
48872;BME280;36154;51.674;7.824;2023-06-26T10:54:18;100734.75;;;25.94;42.46
48872;BME280;36154;51.674;7.824;2023-06-26T10:59:16;100753.78;;;25.96;41.60
48872;BME280;36154;51.674;7.824;2023-06-26T11:01:43;100752.88;;;25.97;41.85
48872;BME280;36154;51.674;7.824;2023-06-26T11:04:09;100765.00;;;25.98;41.78
48872;BME280;36154;51.674;7.824;2023-06-26T11:06:36;100753.66;;;25.99;41.70
48872;BME280;36154;51.674;7.824;2023-06-26T11:14:20;100759.69;;;25.99;41.92
48872;BME280;36154;51.674;7.824;2023-06-26T11:16:46;100770.06;;;26.01;42.05
48872;BME280;36154;51.674;7.824;2023-06-26T11:19:14;100745.66;;;26.02;42.03
48872;BME280;36154;51.674;7.824;2023-06-26T11:21:40;100746.50;;;26.02;41.96
48872;BME280;36154;51.674;7.824;2023-06-26T11:24:11;100755.00;;;26.06;42.00
48872;BME280;36154;51.674;7.824;2023-06-26T11:26:41;100764.56;;;26.07;42.08
48872;BME280;36154;51.674;7.824;2023-06-26T11:29:07;100777.47;;;26.10;41.85
48872;BME280;36154;51.674;7.824;2023-06-26T11:31:35;100775.59;;;26.12;41.59
48872;BME280;36154;51.674;7.824;2023-06-26T11:34:07;100782.53;;;26.13;41.14
48872;BME280;36154;51.674;7.824;2023-06-26T11:36:33;100776.22;;;26.17;40.98
48872;BME280;36154;51.674;7.824;2023-06-26T11:39:04;100771.75;;;26.19;40.90
48872;BME280;36154;51.674;7.824;2023-06-26T11:41:34;100764.59;;;26.23;40.39
48872;BME280;36154;51.674;7.824;2023-06-26T11:44:05;100771.44;;;26.26;40.44
48872;BME280;36154;51.674;7.824;2023-06-26T11:46:31;100770.53;;;26.27;40.17
48872;BME280;36154;51.674;7.824;2023-06-26T11:48:57;100768.72;;;26.29;40.17
48872;BME280;36154;51.674;7.824;2023-06-26T11:51:23;100779.94;;;26.31;39.88
48872;BME280;36154;51.674;7.824;2023-06-26T11:53:49;100780.69;;;26.33;39.84
48872;BME280;36154;51.674;7.824;2023-06-26T11:56:16;100778.94;;;26.33;39.41
48872;BME280;36154;51.674;7.824;2023-06-26T11:59:05;100788.38;;;26.36;39.36
48872;BME280;36154;51.674;7.824;2023-06-26T12:01:34;100792.69;;;26.37;39.66
48872;BME280;36154;51.674;7.824;2023-06-26T12:04:03;100808.38;;;26.37;39.41
48872;BME280;36154;51.674;7.824;2023-06-26T12:06:34;100811.88;;;26.36;38.66
48872;BME280;36154;51.674;7.824;2023-06-26T12:09:02;100814.00;;;26.28;38.70
48872;BME280;36154;51.674;7.824;2023-06-26T12:11:32;100802.03;;;26.24;38.55
48872;BME280;36154;51.674;7.824;2023-06-26T12:13:59;100807.41;;;26.20;38.78
48872;BME280;36154;51.674;7.824;2023-06-26T12:16:25;100798.81;;;26.18;38.61
48872;BME280;36154;51.674;7.824;2023-06-26T12:18:51;100810.16;;;26.17;38.73
48872;BME280;36154;51.674;7.824;2023-06-26T12:24:06;100812.09;;;26.14;38.86
48872;BME280;36154;51.674;7.824;2023-06-26T12:26:32;100816.47;;;26.13;39.09
48872;BME280;36154;51.674;7.824;2023-06-26T12:29:12;100812.94;;;26.14;39.23
48872;BME280;36154;51.674;7.824;2023-06-26T12:31:45;100816.47;;;26.13;39.08
48872;BME280;36154;51.674;7.824;2023-06-26T12:34:13;100830.44;;;26.12;39.19
48872;BME280;36154;51.674;7.824;2023-06-26T12:36:46;100823.53;;;26.11;39.14
48872;BME280;36154;51.674;7.824;2023-06-26T12:39:17;100835.69;;;26.12;39.09
48872;BME280;36154;51.674;7.824;2023-06-26T12:41:54;100818.44;;;26.08;38.18
48872;BME280;36154;51.674;7.824;2023-06-26T12:44:27;100828.28;;;26.03;38.45
48872;BME280;36154;51.674;7.824;2023-06-26T12:47:02;100829.22;;;26.02;38.84
48872;BME280;36154;51.674;7.824;2023-06-26T12:49:49;100820.44;;;26.03;38.66
48872;BME280;36154;51.674;7.824;2023-06-26T12:52:16;100844.81;;;26.03;39.16
48872;BME280;36154;51.674;7.824;2023-06-26T12:54:43;100848.41;;;26.01;39.22
48872;BME280;36154;51.674;7.824;2023-06-26T12:57:10;100838.28;;;25.95;39.42
48872;BME280;36154;51.674;7.824;2023-06-26T12:59:37;100836.56;;;25.94;39.33
48872;BME280;36154;51.674;7.824;2023-06-26T13:02:03;100844.63;;;25.89;39.32
48872;BME280;36154;51.674;7.824;2023-06-26T13:04:29;100857.88;;;25.84;38.62
48872;BME280;36154;51.674;7.824;2023-06-26T13:06:56;100847.63;;;25.81;38.77